createdAt,value
2023-02-27T00:02:23.455Z,-4.42
2023-02-27T00:04:50.505Z,-4.46
2023-02-27T00:07:17.814Z,-4.45
2023-02-27T00:09:44.416Z,-4.40
2023-02-27T00:12:11.995Z,-4.35
2023-02-27T00:14:38.715Z,-4.35
2023-02-27T00:17:05.300Z,-4.34
2023-02-27T00:19:31.868Z,-4.38
2023-02-27T00:21:58.411Z,-4.42
2023-02-27T00:24:25.175Z,-4.44
2023-02-27T00:26:51.685Z,-4.44
2023-02-27T00:29:18.302Z,-4.46
2023-02-27T00:31:45.093Z,-4.49
2023-02-27T00:34:11.723Z,-4.55
2023-02-27T00:36:38.343Z,-4.56
2023-02-27T00:39:04.978Z,-4.62
2023-02-27T00:41:31.553Z,-4.64
2023-02-27T00:43:58.271Z,-4.64
2023-02-27T00:46:25.029Z,-4.72
2023-02-27T00:48:51.845Z,-4.73
2023-02-27T00:51:20.301Z,-4.75
2023-02-27T00:53:46.936Z,-4.75
2023-02-27T00:56:14.022Z,-4.77
2023-02-27T00:58:40.605Z,-4.79
2023-02-27T01:01:07.264Z,-4.79
2023-02-27T01:03:33.888Z,-4.77
2023-02-27T01:06:00.521Z,-4.75
2023-02-27T01:08:27.183Z,-4.77
2023-02-27T01:10:55.277Z,-4.82
2023-02-27T01:13:22.776Z,-4.80
2023-02-27T01:15:49.732Z,-4.82
2023-02-27T01:18:19.028Z,-4.82
2023-02-27T01:20:46.051Z,-4.82
2023-02-27T01:23:12.708Z,-4.83
2023-02-27T01:25:39.368Z,-4.82
2023-02-27T01:28:06.037Z,-4.77
2023-02-27T01:30:32.781Z,-4.75
2023-02-27T01:32:59.498Z,-4.72
2023-02-27T01:35:26.641Z,-4.72
2023-02-27T01:37:53.428Z,-4.68
2023-02-27T01:40:20.381Z,-4.65
2023-02-27T01:42:47.206Z,-4.64
2023-02-27T01:45:32.790Z,-4.64
2023-02-27T01:48:10.136Z,-4.62
2023-02-27T01:50:41.763Z,-4.62
2023-02-27T01:53:08.742Z,-4.64
2023-02-27T01:55:38.858Z,-4.58
2023-02-27T01:58:07.942Z,-4.55
2023-02-27T02:00:34.820Z,-4.49
2023-02-27T02:03:08.341Z,-4.31
2023-02-27T02:05:35.807Z,-4.24
2023-02-27T02:08:03.582Z,-4.19
2023-02-27T02:10:31.660Z,-4.17
2023-02-27T02:12:58.996Z,-4.08
2023-02-27T02:15:33.509Z,-4.05
2023-02-27T02:18:03.010Z,-4.04
2023-02-27T02:20:45.500Z,-3.79
2023-02-27T02:23:27.722Z,-3.75
2023-02-27T02:26:33.524Z,-3.76
2023-02-27T02:29:25.157Z,-3.80
2023-02-27T02:32:18.966Z,-3.89
2023-02-27T02:35:17.190Z,-3.93
2023-02-27T02:37:58.901Z,-3.94
2023-02-27T02:40:30.477Z,-4.01
2023-02-27T02:43:17.289Z,-4.10
2023-02-27T02:46:02.313Z,-4.18
2023-02-27T02:48:41.949Z,-4.27
2023-02-27T02:51:14.547Z,-4.29
2023-02-27T02:53:51.660Z,-4.34
2023-02-27T02:56:26.358Z,-4.35
2023-02-27T02:59:16.114Z,-4.36
2023-02-27T03:01:49.131Z,-4.42
2023-02-27T03:04:39.682Z,-4.48
2023-02-27T03:07:31.566Z,-4.56
2023-02-27T03:10:05.158Z,-4.64
2023-02-27T03:12:33.798Z,-4.66
2023-02-27T03:15:10.846Z,-4.68
2023-02-27T03:18:04.888Z,-4.73
2023-02-27T03:20:39.742Z,-4.75
2023-02-27T03:23:11.929Z,-4.79
2023-02-27T03:25:40.096Z,-4.85
2023-02-27T03:28:10.934Z,-4.89
2023-02-27T03:30:46.914Z,-4.93
2023-02-27T03:33:53.152Z,-4.96
2023-02-27T03:36:43.304Z,-5.00
2023-02-27T03:39:25.272Z,-5.03
2023-02-27T03:42:20.450Z,-5.06
2023-02-27T03:45:24.640Z,-5.08
2023-02-27T03:47:51.628Z,-5.16
2023-02-27T03:50:18.560Z,-5.16
2023-02-27T03:52:46.112Z,-5.20
2023-02-27T03:55:17.474Z,-5.20
2023-02-27T03:57:46.423Z,-5.27
2023-02-27T04:00:17.842Z,-5.28
2023-02-27T04:02:46.907Z,-5.30
2023-02-27T04:05:13.548Z,-5.28
2023-02-27T04:08:08.155Z,-5.30
2023-02-27T04:10:59.493Z,-5.32
2023-02-27T04:13:44.283Z,-5.30
2023-02-27T04:16:26.477Z,-5.24
2023-02-27T04:18:59.020Z,-5.14
2023-02-27T04:21:40.781Z,-5.03
2023-02-27T04:24:16.917Z,-4.95
2023-02-27T04:26:49.881Z,-4.90
2023-02-27T04:29:44.326Z,-4.82
2023-02-27T04:32:40.468Z,-4.71
2023-02-27T04:35:32.265Z,-4.68
2023-02-27T04:38:25.850Z,-4.73
2023-02-27T04:40:55.119Z,-4.82
2023-02-27T04:43:24.903Z,-4.89
2023-02-27T04:45:54.708Z,-4.97
2023-02-27T04:48:26.240Z,-5.01
2023-02-27T04:51:12.318Z,-5.07
2023-02-27T04:54:01.781Z,-5.16
2023-02-27T04:56:34.792Z,-5.23
2023-02-27T04:59:33.515Z,-5.26
2023-02-27T05:02:06.528Z,-5.30
2023-02-27T05:04:37.139Z,-5.32
2023-02-27T05:07:07.085Z,-5.37
2023-02-27T05:09:55.221Z,-5.38
2023-02-27T05:12:26.815Z,-5.41
2023-02-27T05:15:06.283Z,-5.45
2023-02-27T05:17:38.854Z,-5.45
2023-02-27T05:20:09.052Z,-5.50
2023-02-27T05:22:38.411Z,-5.51
2023-02-27T05:25:14.025Z,-5.52
2023-02-27T05:27:56.611Z,-5.51
2023-02-27T05:30:36.867Z,-5.55
2023-02-27T05:33:18.015Z,-5.57
2023-02-27T05:36:17.208Z,-5.57
2023-02-27T05:38:48.802Z,-5.54
2023-02-27T05:41:25.809Z,-5.52
2023-02-27T05:44:05.248Z,-5.61
2023-02-27T05:46:37.218Z,-5.58
2023-02-27T05:49:18.337Z,-5.62
2023-02-27T05:51:49.141Z,-5.65
2023-02-27T05:54:43.932Z,-5.61
2023-02-27T05:57:16.493Z,-5.61
2023-02-27T05:59:50.166Z,-5.59
2023-02-27T06:02:17.334Z,-5.61
2023-02-27T06:04:44.029Z,-5.62
2023-02-27T06:07:13.865Z,-5.65
2023-02-27T06:09:42.040Z,-5.64
2023-02-27T06:12:08.834Z,-5.65
2023-02-27T06:14:35.382Z,-5.67
2023-02-27T06:17:02.165Z,-5.67
2023-02-27T06:19:28.804Z,-5.61
2023-02-27T06:21:55.406Z,-5.61
2023-02-27T06:24:22.228Z,-5.58
2023-02-27T06:26:48.841Z,-5.50
2023-02-27T06:29:15.375Z,-5.41
2023-02-27T06:31:42.165Z,-5.37
2023-02-27T06:34:08.740Z,-5.27
2023-02-27T06:36:35.303Z,-5.18
2023-02-27T06:39:01.985Z,-5.07
2023-02-27T06:41:29.083Z,-4.95
2023-02-27T06:43:56.422Z,-4.82
2023-02-27T06:46:24.200Z,-4.69
2023-02-27T06:48:50.765Z,-4.48
2023-02-27T06:51:17.516Z,-4.27
2023-02-27T06:53:44.526Z,-4.10
2023-02-27T06:56:11.097Z,-3.91
2023-02-27T06:58:37.661Z,-3.79
2023-02-27T07:01:04.441Z,-3.66
2023-02-27T07:03:31.074Z,-3.60
2023-02-27T07:05:58.770Z,-3.53
2023-02-27T07:08:25.444Z,-3.48
2023-02-27T07:10:52.083Z,-3.39
2023-02-27T07:13:19.742Z,-3.31
2023-02-27T07:15:46.691Z,-3.19
2023-02-27T07:18:13.297Z,-3.07
2023-02-27T07:20:40.292Z,-2.94
2023-02-27T07:23:07.442Z,-2.84
2023-02-27T07:25:34.051Z,-2.70
2023-02-27T07:28:00.702Z,-2.62
2023-02-27T07:30:30.618Z,-2.52
2023-02-27T07:32:58.049Z,-2.41
2023-02-27T07:35:24.703Z,-2.35
2023-02-27T07:37:51.612Z,-2.25
2023-02-27T07:40:18.559Z,-2.18
2023-02-27T07:42:48.143Z,-2.04
2023-02-27T07:45:15.229Z,-1.94
2023-02-27T07:47:43.337Z,-1.85
2023-02-27T07:50:14.044Z,-1.80
2023-02-27T07:52:41.708Z,-1.68
2023-02-27T07:55:10.034Z,-1.56
2023-02-27T07:57:36.646Z,-1.40
2023-02-27T08:00:09.427Z,-1.28
2023-02-27T08:02:36.024Z,-1.23
2023-02-27T08:05:02.865Z,-1.17
2023-02-27T08:07:29.387Z,-1.03
2023-02-27T08:09:55.969Z,-0.89
2023-02-27T08:12:22.621Z,-0.78
2023-02-27T08:14:49.318Z,-0.70
2023-02-27T08:17:16.009Z,-0.60
2023-02-27T08:19:42.644Z,-0.51
2023-02-27T08:22:09.289Z,-0.36
2023-02-27T08:24:35.840Z,-0.24
2023-02-27T08:27:02.629Z,-0.23
2023-02-27T08:29:30.911Z,-0.21
2023-02-27T08:31:57.735Z,-0.20
2023-02-27T08:34:25.713Z,-0.12
2023-02-27T08:36:52.739Z,0.01
2023-02-27T08:39:20.219Z,0.08
2023-02-27T08:41:46.869Z,0.19
2023-02-27T08:44:13.588Z,0.37
2023-02-27T08:46:40.204Z,0.46
2023-02-27T08:49:06.876Z,0.56
2023-02-27T08:51:33.524Z,0.68
2023-02-27T08:54:00.166Z,0.80
2023-02-27T08:56:28.049Z,1.03
2023-02-27T08:58:55.518Z,1.28
2023-02-27T09:01:22.241Z,1.59
2023-02-27T09:03:49.437Z,1.78
2023-02-27T09:06:16.303Z,2.03
2023-02-27T09:08:42.919Z,2.20
2023-02-27T09:11:09.521Z,2.42
2023-02-27T09:13:36.114Z,2.55
2023-02-27T09:16:02.694Z,2.81
2023-02-27T09:18:29.230Z,2.75
2023-02-27T09:20:56.431Z,2.82
2023-02-27T09:23:23.367Z,2.81
2023-02-27T09:25:50.023Z,2.88
2023-02-27T09:28:16.729Z,3.19
2023-02-27T09:30:43.255Z,3.32
2023-02-27T09:33:09.791Z,3.24
2023-02-27T09:35:36.949Z,3.26
2023-02-27T09:38:03.673Z,3.43
2023-02-27T09:40:32.717Z,3.41
2023-02-27T09:43:04.020Z,3.47
2023-02-27T09:45:33.175Z,3.54
2023-02-27T09:48:19.329Z,3.61
2023-02-27T09:50:48.853Z,3.70
2023-02-27T09:53:31.179Z,3.71
2023-02-27T09:56:05.231Z,3.70
2023-02-27T09:58:41.009Z,3.66
2023-02-27T10:01:23.412Z,3.77
2023-02-27T10:03:56.286Z,3.90
2023-02-27T10:06:27.740Z,3.85
2023-02-27T10:09:02.795Z,3.88
2023-02-27T10:11:54.830Z,4.09
2023-02-27T10:14:47.474Z,4.28
2023-02-27T10:17:22.834Z,4.56
2023-02-27T10:19:52.254Z,4.60
2023-02-27T10:22:26.295Z,4.74
2023-02-27T10:24:59.893Z,5.02
2023-02-27T10:27:26.628Z,5.02
2023-02-27T10:29:57.970Z,5.22
2023-02-27T10:32:29.872Z,5.27
2023-02-27T10:35:27.548Z,5.39
2023-02-27T10:38:04.197Z,5.72
2023-02-27T10:40:31.414Z,5.86
2023-02-27T10:43:01.405Z,5.97
2023-02-27T10:45:28.018Z,6.31
2023-02-27T10:47:55.286Z,6.48
2023-02-27T10:50:31.858Z,6.62
2023-02-27T10:53:03.661Z,6.59
2023-02-27T10:55:36.289Z,7.04
2023-02-27T10:58:04.751Z,7.35
2023-02-27T11:00:45.269Z,7.35
2023-02-27T11:03:42.491Z,7.13
2023-02-27T11:06:22.406Z,7.38
2023-02-27T11:09:10.678Z,7.30
2023-02-27T11:11:38.021Z,7.20
2023-02-27T11:14:19.814Z,7.33
2023-02-27T11:16:52.434Z,7.38
2023-02-27T11:19:34.928Z,7.51
2023-02-27T11:22:20.380Z,7.37
2023-02-27T11:24:48.144Z,7.35
2023-02-27T11:27:22.875Z,7.35
2023-02-27T11:30:06.155Z,7.10
2023-02-27T11:32:35.493Z,7.07
2023-02-27T11:35:04.370Z,6.78
2023-02-27T11:37:35.052Z,6.71
2023-02-27T11:40:12.821Z,6.79
2023-02-27T11:42:51.832Z,6.48
2023-02-27T11:46:13.911Z,6.65
2023-02-27T11:48:19.620Z,7.48
2023-02-27T11:51:20.355Z,7.03
2023-02-27T11:54:01.735Z,8.50
2023-02-27T11:56:47.738Z,9.01
2023-02-27T11:59:38.985Z,8.37
2023-02-27T12:02:14.853Z,7.79
2023-02-27T12:04:54.066Z,6.97
2023-02-27T12:07:27.369Z,6.48
2023-02-27T12:10:08.737Z,6.52
2023-02-27T12:12:50.459Z,6.37
2023-02-27T12:15:47.284Z,6.24
2023-02-27T12:18:26.868Z,6.13
2023-02-27T12:20:53.459Z,6.11
2023-02-27T12:23:39.996Z,6.28
2023-02-27T12:26:22.136Z,6.52
2023-02-27T12:29:02.128Z,6.68
2023-02-27T12:31:42.402Z,6.61
2023-02-27T12:34:29.385Z,6.65
2023-02-27T12:37:33.574Z,6.97
2023-02-27T12:40:01.905Z,6.96
2023-02-27T12:42:59.748Z,6.95
2023-02-27T12:45:53.727Z,6.75
2023-02-27T12:48:38.331Z,6.49
2023-02-27T12:51:07.674Z,6.18
2023-02-27T12:53:43.628Z,6.09
2023-02-27T12:56:17.135Z,5.96
2023-02-27T12:59:25.587Z,5.89
2023-02-27T13:02:02.266Z,5.74
2023-02-27T13:04:47.666Z,5.74
2023-02-27T13:07:29.747Z,5.87
2023-02-27T13:10:01.849Z,5.94
2023-02-27T13:12:42.923Z,6.02
2023-02-27T13:15:25.382Z,6.02
2023-02-27T13:17:59.253Z,6.06
2023-02-27T13:20:36.156Z,6.14
2023-02-27T13:23:19.954Z,6.24
2023-02-27T13:25:51.160Z,6.28
2023-02-27T13:28:27.152Z,6.20
2023-02-27T13:31:29.595Z,6.09
2023-02-27T13:34:17.789Z,6.04
2023-02-27T13:36:48.918Z,6.16
2023-02-27T13:39:40.427Z,6.06
2023-02-27T13:42:25.495Z,6.13
2023-02-27T13:44:58.902Z,6.24
2023-02-27T13:47:31.415Z,7.35
2023-02-27T13:50:04.020Z,8.42
2023-02-27T13:52:33.970Z,8.88
2023-02-27T13:55:11.300Z,8.61
2023-02-27T13:57:39.095Z,8.03
2023-02-27T14:00:53.258Z,7.40
2023-02-27T14:03:25.998Z,6.86
2023-02-27T14:05:56.398Z,6.52
2023-02-27T14:08:46.090Z,6.34
2023-02-27T14:11:28.577Z,6.09
2023-02-27T14:13:57.015Z,5.74
2023-02-27T14:16:41.746Z,5.69
2023-02-27T14:19:22.569Z,5.60
2023-02-27T14:21:52.856Z,5.43
2023-02-27T14:24:49.595Z,5.53
2023-02-27T14:27:28.958Z,5.31
2023-02-27T14:29:58.553Z,5.31
2023-02-27T14:32:32.303Z,5.35
2023-02-27T14:35:00.130Z,5.48
2023-02-27T14:37:27.869Z,5.43
2023-02-27T14:39:56.870Z,5.49
2023-02-27T14:43:02.104Z,5.51
2023-02-27T14:45:30.900Z,5.42
2023-02-27T14:47:58.432Z,5.27
2023-02-27T14:50:37.441Z,5.20
2023-02-27T14:53:05.745Z,5.18
2023-02-27T14:55:34.993Z,5.56
2023-02-27T14:58:07.609Z,5.67
2023-02-27T15:00:38.432Z,5.59
2023-02-27T15:03:11.165Z,5.52
2023-02-27T15:05:38.724Z,5.38
2023-02-27T15:08:05.370Z,5.34
2023-02-27T15:10:33.241Z,5.20
2023-02-27T15:13:01.402Z,5.10
2023-02-27T15:15:28.631Z,4.98
2023-02-27T15:17:55.837Z,4.87
2023-02-27T15:20:24.580Z,4.77
2023-02-27T15:22:51.183Z,4.71
2023-02-27T15:25:31.864Z,4.57
2023-02-27T15:28:03.176Z,4.52
2023-02-27T15:30:30.132Z,4.49
2023-02-27T15:32:57.583Z,4.36
2023-02-27T15:35:30.400Z,4.32
2023-02-27T15:37:59.357Z,4.19
2023-02-27T15:40:28.212Z,4.05
2023-02-27T15:42:56.098Z,3.92
2023-02-27T15:45:34.057Z,3.81
2023-02-27T15:48:01.046Z,3.70
2023-02-27T15:50:33.717Z,3.66
2023-02-27T15:53:09.439Z,3.64
2023-02-27T15:55:39.594Z,3.63
2023-02-27T15:58:26.443Z,3.63
2023-02-27T16:01:13.141Z,3.60
2023-02-27T16:03:46.008Z,3.60
2023-02-27T16:06:18.346Z,3.57
2023-02-27T16:08:50.933Z,3.54
2023-02-27T16:11:23.428Z,3.46
2023-02-27T16:13:51.646Z,3.39
2023-02-27T16:16:21.277Z,3.37
2023-02-27T16:18:50.649Z,3.37
2023-02-27T16:21:19.646Z,3.33
2023-02-27T16:23:47.476Z,3.26
2023-02-27T16:26:31.025Z,3.23
2023-02-27T16:29:19.164Z,3.10
2023-02-27T16:31:49.222Z,3.06
2023-02-27T16:34:42.773Z,2.96
2023-02-27T16:37:22.866Z,2.79
2023-02-27T16:39:52.191Z,2.71
2023-02-27T16:42:19.077Z,2.54
2023-02-27T16:44:45.718Z,2.45
2023-02-27T16:47:12.694Z,2.34
2023-02-27T16:49:40.378Z,2.31
2023-02-27T16:52:10.353Z,2.27
2023-02-27T16:54:37.143Z,2.19
2023-02-27T16:57:04.428Z,2.16
2023-02-27T16:59:36.289Z,2.13
2023-02-27T17:02:06.970Z,2.07
2023-02-27T17:04:33.751Z,1.98
2023-02-27T17:07:02.024Z,1.92
2023-02-27T17:09:29.251Z,1.87
2023-02-27T17:11:56.997Z,1.80
2023-02-27T17:14:24.452Z,1.72
2023-02-27T17:16:50.968Z,1.68
2023-02-27T17:19:17.609Z,1.61
2023-02-27T17:21:44.266Z,1.62
2023-02-27T17:24:11.037Z,1.45
2023-02-27T17:26:37.639Z,1.42
2023-02-27T17:29:05.188Z,1.28
2023-02-27T17:31:31.791Z,1.17
2023-02-27T17:33:58.374Z,1.03
2023-02-27T17:36:25.713Z,0.90
2023-02-27T17:38:57.194Z,0.75
2023-02-27T17:41:24.472Z,0.59
2023-02-27T17:43:52.677Z,0.48
2023-02-27T17:46:19.604Z,0.35
2023-02-27T17:48:47.085Z,0.26
2023-02-27T17:51:15.288Z,0.14
2023-02-27T17:53:42.848Z,0.09
2023-02-27T17:56:10.399Z,0.05
2023-02-27T17:58:37.167Z,0.04
2023-02-27T18:01:09.346Z,0.05
2023-02-27T18:03:36.384Z,0.05
2023-02-27T18:06:03.727Z,0.02
2023-02-27T18:08:31.487Z,-0.02
2023-02-27T18:10:58.631Z,-0.03
2023-02-27T18:13:27.241Z,-0.12
2023-02-27T18:15:55.198Z,-0.17
2023-02-27T18:18:22.448Z,-0.23
2023-02-27T18:21:00.076Z,-0.31
2023-02-27T18:23:26.746Z,-0.37
2023-02-27T18:25:59.572Z,-0.43
2023-02-27T18:28:26.700Z,-0.50
2023-02-27T18:30:53.583Z,-0.57
2023-02-27T18:33:20.253Z,-0.65
2023-02-27T18:35:47.075Z,-0.71
2023-02-27T18:38:13.776Z,-0.74
2023-02-27T18:40:40.394Z,-0.77
2023-02-27T18:43:07.619Z,-0.81
2023-02-27T18:45:34.456Z,-0.84
2023-02-27T18:48:01.491Z,-0.92
2023-02-27T18:50:28.201Z,-0.95
2023-02-27T18:52:56.117Z,-0.99
2023-02-27T18:55:22.871Z,-1.08
2023-02-27T18:57:50.859Z,-1.09
2023-02-27T19:00:24.326Z,-1.09
2023-02-27T19:02:51.313Z,-1.09
2023-02-27T19:05:18.501Z,-1.01
2023-02-27T19:07:45.366Z,-1.01
2023-02-27T19:10:12.955Z,-0.96
2023-02-27T19:12:39.521Z,-0.99
2023-02-27T19:15:06.896Z,-0.96
2023-02-27T19:17:33.705Z,-0.98
2023-02-27T19:20:00.381Z,-0.95
2023-02-27T19:22:30.775Z,-0.96
2023-02-27T19:24:57.385Z,-0.92
2023-02-27T19:27:24.302Z,-0.96
2023-02-27T19:29:51.400Z,-0.96
2023-02-27T19:32:18.062Z,-1.03
2023-02-27T19:34:44.656Z,-1.11
2023-02-27T19:37:11.336Z,-1.15
2023-02-27T19:39:37.943Z,-1.12
2023-02-27T19:42:04.618Z,-1.19
2023-02-27T19:44:31.248Z,-1.25
2023-02-27T19:46:57.872Z,-1.29
2023-02-27T19:49:24.624Z,-1.35
2023-02-27T19:51:51.306Z,-1.30
2023-02-27T19:54:18.078Z,-1.32
2023-02-27T19:56:44.828Z,-1.28
2023-02-27T19:59:12.464Z,-1.25
2023-02-27T20:01:39.521Z,-1.23
2023-02-27T20:04:07.790Z,-1.23
2023-02-27T20:06:53.830Z,-1.22
2023-02-27T20:09:20.763Z,-1.28
2023-02-27T20:11:50.953Z,-1.28
2023-02-27T20:14:17.682Z,-1.28
2023-02-27T20:16:44.925Z,-1.29
2023-02-27T20:19:17.333Z,-1.33
2023-02-27T20:21:45.456Z,-1.40
2023-02-27T20:24:14.166Z,-1.42
2023-02-27T20:26:47.725Z,-1.46
2023-02-27T20:29:20.056Z,-1.52
2023-02-27T20:31:48.863Z,-1.54
2023-02-27T20:34:21.766Z,-1.54
2023-02-27T20:36:53.098Z,-1.59
2023-02-27T20:39:20.776Z,-1.53
2023-02-27T20:41:47.685Z,-1.52
2023-02-27T20:44:14.724Z,-1.50
2023-02-27T20:46:42.657Z,-1.50
2023-02-27T20:49:12.335Z,-1.52
2023-02-27T20:51:39.433Z,-1.49
2023-02-27T20:54:08.418Z,-1.47
2023-02-27T20:56:39.829Z,-1.43
2023-02-27T20:59:09.551Z,-1.42
2023-02-27T21:01:38.477Z,-1.44
2023-02-27T21:04:05.403Z,-1.46
2023-02-27T21:06:32.318Z,-1.43
2023-02-27T21:09:04.063Z,-1.39
2023-02-27T21:11:31.800Z,-1.39
2023-02-27T21:14:02.215Z,-1.38
2023-02-27T21:16:28.860Z,-1.35
2023-02-27T21:18:56.922Z,-1.36
2023-02-27T21:21:33.116Z,-1.33
2023-02-27T21:24:00.196Z,-1.36
2023-02-27T21:26:26.734Z,-1.36
2023-02-27T21:28:56.400Z,-1.39
2023-02-27T21:31:24.485Z,-1.39
2023-02-27T21:33:52.306Z,-1.39
2023-02-27T21:36:25.122Z,-1.40
2023-02-27T21:38:58.450Z,-1.38
2023-02-27T21:41:25.157Z,-1.39
2023-02-27T21:43:51.687Z,-1.35
2023-02-27T21:46:20.801Z,-1.30
2023-02-27T21:48:47.577Z,-1.25
2023-02-27T21:51:14.099Z,-1.23
2023-02-27T21:53:40.969Z,-1.22
2023-02-27T21:56:09.941Z,-1.22
2023-02-27T21:58:37.241Z,-1.23
2023-02-27T22:01:15.407Z,-1.25
2023-02-27T22:03:43.359Z,-1.26
2023-02-27T22:06:11.131Z,-1.25
2023-02-27T22:08:38.376Z,-1.20
2023-02-27T22:11:05.171Z,-1.23
2023-02-27T22:13:32.188Z,-1.25
2023-02-27T22:16:05.330Z,-1.25
2023-02-27T22:18:32.801Z,-1.29
2023-02-27T22:21:00.236Z,-1.30
2023-02-27T22:23:27.158Z,-1.35
2023-02-27T22:26:08.048Z,-1.42
2023-02-27T22:28:35.353Z,-1.44
2023-02-27T22:31:06.931Z,-1.47
2023-02-27T22:33:33.539Z,-1.50
2023-02-27T22:36:00.282Z,-1.52
2023-02-27T22:38:26.936Z,-1.53
2023-02-27T22:40:53.523Z,-1.50
2023-02-27T22:43:20.120Z,-1.50
2023-02-27T22:45:47.121Z,-1.50
2023-02-27T22:48:13.964Z,-1.47
2023-02-27T22:50:40.585Z,-1.49
2023-02-27T22:53:07.094Z,-1.49
2023-02-27T22:55:33.669Z,-1.50
2023-02-27T22:58:00.227Z,-1.49
2023-02-27T23:00:26.781Z,-1.47
2023-02-27T23:02:53.269Z,-1.44
2023-02-27T23:05:20.058Z,-1.40
2023-02-27T23:07:47.177Z,-1.38
2023-02-27T23:10:13.723Z,-1.32
2023-02-27T23:12:40.402Z,-1.30
2023-02-27T23:15:07.811Z,-1.28
2023-02-27T23:17:34.392Z,-1.26
2023-02-27T23:20:00.897Z,-1.25
2023-02-27T23:22:33.293Z,-1.32
2023-02-27T23:25:00.573Z,-1.35
2023-02-27T23:27:27.097Z,-1.39
2023-02-27T23:29:53.739Z,-1.40
2023-02-27T23:32:20.479Z,-1.44
2023-02-27T23:34:49.579Z,-1.46
2023-02-27T23:37:16.557Z,-1.50
2023-02-27T23:39:43.196Z,-1.52
2023-02-27T23:42:09.748Z,-1.54
2023-02-27T23:44:36.300Z,-1.63
2023-02-27T23:47:02.876Z,-1.64
2023-02-27T23:49:29.453Z,-1.71
2023-02-27T23:51:56.089Z,-1.78
2023-02-27T23:54:22.667Z,-1.91
2023-02-27T23:56:49.310Z,-2.04
2023-02-27T23:59:15.859Z,-2.12
